sensor_id;sensor_type;location;lat;lon;timestamp;P1;durP1;ratioP1;P2;durP2;ratioP2
22515;SDS011;11424;48.860;9.624;2024-03-25T00:03:00;9.9;;;10.7;;
22515;SDS011;11424;48.860;9.624;2024-03-25T00:08:00;13.3;;;14.5;;
22515;SDS011;11424;48.860;9.624;2024-03-25T00:13:00;10.6;;;11.4;;
22515;SDS011;11424;48.860;9.624;2024-03-25T00:18:00;15.7;;;17;;
22515;SDS011;11424;48.860;9.624;2024-03-25T00:23:00;63.9;;;71.4;;
22515;SDS011;11424;48.860;9.624;2024-03-25T00:28:00;15.3;;;30.9;;
22515;SDS011;11424;48.860;9.624;2024-03-25T00:33:00;3.7;;;4;;
22515;SDS011;11424;48.860;9.624;2024-03-25T00:38:00;3.9;;;4.3;;
22515;SDS011;11424;48.860;9.624;2024-03-25T00:43:00;4.8;;;6.1;;
22515;SDS011;11424;48.860;9.624;2024-03-25T00:48:00;9.9;;;11.6;;
22515;SDS011;11424;48.860;9.624;2024-03-25T00:53:00;8.9;;;9.9;;
22515;SDS011;11424;48.860;9.624;2024-03-25T00:58:00;9.7;;;10.6;;
22515;SDS011;11424;48.860;9.624;2024-03-25T01:03:00;12.3;;;30.3;;
22515;SDS011;11424;48.860;9.624;2024-03-25T01:08:00;12.4;;;36.8;;
22515;SDS011;11424;48.860;9.624;2024-03-25T01:13:00;24.5;;;39.7;;
22515;SDS011;11424;48.860;9.624;2024-03-25T01:18:00;21.5;;;42.2;;
22515;SDS011;11424;48.860;9.624;2024-03-25T01:23:00;17.8;;;32.8;;
22515;SDS011;11424;48.860;9.624;2024-03-25T01:28:00;11.5;;;12.5;;
22515;SDS011;11424;48.860;9.624;2024-03-25T01:33:00;10.2;;;11;;
22515;SDS011;11424;48.860;9.624;2024-03-25T01:38:00;11.3;;;12.3;;
22515;SDS011;11424;48.860;9.624;2024-03-25T01:43:00;3.9;;;4.2;;
22515;SDS011;11424;48.860;9.624;2024-03-25T01:48:01;2.7;;;2.9;;
22515;SDS011;11424;48.860;9.624;2024-03-25T01:53:00;4.9;;;5.5;;
22515;SDS011;11424;48.860;9.624;2024-03-25T01:58:00;4.6;;;6;;
22515;SDS011;11424;48.860;9.624;2024-03-25T02:03:00;4.2;;;5.2;;
22515;SDS011;11424;48.860;9.624;2024-03-25T02:08:00;4.4;;;4.9;;
22515;SDS011;11424;48.860;9.624;2024-03-25T02:13:00;4.2;;;4.5;;
22515;SDS011;11424;48.860;9.624;2024-03-25T02:18:00;4.6;;;5.1;;
22515;SDS011;11424;48.860;9.624;2024-03-25T02:23:00;4.5;;;5.6;;
22515;SDS011;11424;48.860;9.624;2024-03-25T02:28:00;4.7;;;5.2;;
22515;SDS011;11424;48.860;9.624;2024-03-25T02:33:00;4.8;;;5.6;;
22515;SDS011;11424;48.860;9.624;2024-03-25T02:38:00;9.4;;;13.3;;
22515;SDS011;11424;48.860;9.624;2024-03-25T02:43:00;10.3;;;31.8;;
22515;SDS011;11424;48.860;9.624;2024-03-25T02:48:00;9.6;;;30.6;;
22515;SDS011;11424;48.860;9.624;2024-03-25T02:53:00;11.6;;;37.1;;
22515;SDS011;11424;48.860;9.624;2024-03-25T02:58:00;9.6;;;10.4;;
22515;SDS011;11424;48.860;9.624;2024-03-25T03:03:00;11.5;;;33.2;;
22515;SDS011;11424;48.860;9.624;2024-03-25T03:08:00;12.9;;;34.1;;
22515;SDS011;11424;48.860;9.624;2024-03-25T03:13:00;42.1;;;49.3;;
22515;SDS011;11424;48.860;9.624;2024-03-25T03:18:00;18.4;;;40.5;;
22515;SDS011;11424;48.860;9.624;2024-03-25T03:23:00;46.2;;;61.4;;
22515;SDS011;11424;48.860;9.624;2024-03-25T03:28:00;35.3;;;56.9;;
22515;SDS011;11424;48.860;9.624;2024-03-25T03:33:00;14.9;;;43.6;;
22515;SDS011;11424;48.860;9.624;2024-03-25T03:38:00;33.6;;;53.3;;
22515;SDS011;11424;48.860;9.624;2024-03-25T03:43:00;41.4;;;65.9;;
22515;SDS011;11424;48.860;9.624;2024-03-25T03:48:00;22;;;42.1;;
22515;SDS011;11424;48.860;9.624;2024-03-25T03:53:00;23;;;48.3;;
22515;SDS011;11424;48.860;9.624;2024-03-25T03:58:00;36.5;;;51.7;;
22515;SDS011;11424;48.860;9.624;2024-03-25T04:03:00;65.6;;;79.1;;
22515;SDS011;11424;48.860;9.624;2024-03-25T04:08:00;49.8;;;62.2;;
22515;SDS011;11424;48.860;9.624;2024-03-25T04:13:00;11.7;;;36.7;;
22515;SDS011;11424;48.860;9.624;2024-03-25T04:18:00;43.6;;;56.7;;
22515;SDS011;11424;48.860;9.624;2024-03-25T04:23:00;29.8;;;47.2;;
22515;SDS011;11424;48.860;9.624;2024-03-25T04:28:00;17.5;;;19.9;;
22515;SDS011;11424;48.860;9.624;2024-03-25T04:33:00;17.8;;;20.5;;
22515;SDS011;11424;48.860;9.624;2024-03-25T04:38:00;23.8;;;26.8;;
22515;SDS011;11424;48.860;9.624;2024-03-25T04:43:00;22.7;;;40.6;;
22515;SDS011;11424;48.860;9.624;2024-03-25T04:48:00;14.8;;;46.5;;
22515;SDS011;11424;48.860;9.624;2024-03-25T04:53:00;13.6;;;42.4;;
22515;SDS011;11424;48.860;9.624;2024-03-25T04:58:00;13.8;;;41.2;;
22515;SDS011;11424;48.860;9.624;2024-03-25T05:03:00;13.6;;;41.7;;
22515;SDS011;11424;48.860;9.624;2024-03-25T05:08:00;13.4;;;14.6;;
22515;SDS011;11424;48.860;9.624;2024-03-25T05:13:00;12.6;;;13.8;;
22515;SDS011;11424;48.860;9.624;2024-03-25T05:18:00;12.3;;;13.3;;
22515;SDS011;11424;48.860;9.624;2024-03-25T05:23:00;14.7;;;45;;
22515;SDS011;11424;48.860;9.624;2024-03-25T05:28:00;11.7;;;34.2;;
22515;SDS011;11424;48.860;9.624;2024-03-25T05:33:00;37.1;;;50.5;;
22515;SDS011;11424;48.860;9.624;2024-03-25T05:38:00;37.8;;;53.4;;
22515;SDS011;11424;48.860;9.624;2024-03-25T05:43:00;50.6;;;60.2;;
22515;SDS011;11424;48.860;9.624;2024-03-25T05:48:00;40.2;;;57.7;;
22515;SDS011;11424;48.860;9.624;2024-03-25T05:53:00;15.1;;;16.8;;
22515;SDS011;11424;48.860;9.624;2024-03-25T05:58:00;10.9;;;12.1;;
22515;SDS011;11424;48.860;9.624;2024-03-25T06:03:00;25.1;;;42.5;;
22515;SDS011;11424;48.860;9.624;2024-03-25T06:08:00;71.2;;;81.5;;
22515;SDS011;11424;48.860;9.624;2024-03-25T06:13:00;67.5;;;76.5;;
22515;SDS011;11424;48.860;9.624;2024-03-25T06:18:00;40.2;;;57;;
22515;SDS011;11424;48.860;9.624;2024-03-25T06:23:00;15.7;;;47.2;;
22515;SDS011;11424;48.860;9.624;2024-03-25T06:28:00;17;;;49.1;;
22515;SDS011;11424;48.860;9.624;2024-03-25T06:33:00;32.7;;;54.6;;
22515;SDS011;11424;48.860;9.624;2024-03-25T06:38:00;14.2;;;15.8;;
22515;SDS011;11424;48.860;9.624;2024-03-25T06:43:01;46.4;;;54.4;;
22515;SDS011;11424;48.860;9.624;2024-03-25T06:48:00;47.2;;;56;;
22515;SDS011;11424;48.860;9.624;2024-03-25T06:53:00;52.1;;;58.6;;
22515;SDS011;11424;48.860;9.624;2024-03-25T06:58:00;36.6;;;50.8;;
22515;SDS011;11424;48.860;9.624;2024-03-25T07:03:00;67.3;;;75;;
22515;SDS011;11424;48.860;9.624;2024-03-25T07:08:00;81.1;;;88.9;;
22515;SDS011;11424;48.860;9.624;2024-03-25T07:13:00;53.4;;;59.5;;
22515;SDS011;11424;48.860;9.624;2024-03-25T07:18:00;64.4;;;72;;
22515;SDS011;11424;48.860;9.624;2024-03-25T07:23:00;65.6;;;73.3;;
22515;SDS011;11424;48.860;9.624;2024-03-25T07:28:00;59.3;;;66.6;;
22515;SDS011;11424;48.860;9.624;2024-03-25T07:33:00;34;;;50.3;;
22515;SDS011;11424;48.860;9.624;2024-03-25T07:38:00;37.5;;;50.9;;
22515;SDS011;11424;48.860;9.624;2024-03-25T07:43:00;63.3;;;70.7;;
22515;SDS011;11424;48.860;9.624;2024-03-25T07:48:00;39;;;52.1;;
22515;SDS011;11424;48.860;9.624;2024-03-25T07:53:00;30.6;;;53.7;;
22515;SDS011;11424;48.860;9.624;2024-03-25T07:58:00;62.3;;;69.3;;
22515;SDS011;11424;48.860;9.624;2024-03-25T08:03:00;29.4;;;36.5;;
22515;SDS011;11424;48.860;9.624;2024-03-25T08:08:00;43.7;;;47.9;;
22515;SDS011;11424;48.860;9.624;2024-03-25T08:13:00;25.5;;;28;;
22515;SDS011;11424;48.860;9.624;2024-03-25T08:18:00;21.8;;;23.9;;
22515;SDS011;11424;48.860;9.624;2024-03-25T08:23:00;17.3;;;19.1;;
22515;SDS011;11424;48.860;9.624;2024-03-25T08:28:00;32.3;;;38;;
22515;SDS011;11424;48.860;9.624;2024-03-25T08:33:00;14.1;;;15.5;;
22515;SDS011;11424;48.860;9.624;2024-03-25T08:38:00;17.5;;;18.9;;
22515;SDS011;11424;48.860;9.624;2024-03-25T08:43:00;29.8;;;54;;
22515;SDS011;11424;48.860;9.624;2024-03-25T08:48:00;45.7;;;49.1;;
22515;SDS011;11424;48.860;9.624;2024-03-25T08:53:00;43.3;;;46.9;;
22515;SDS011;11424;48.860;9.624;2024-03-25T08:58:00;55.5;;;60.4;;
22515;SDS011;11424;48.860;9.624;2024-03-25T09:03:00;16.2;;;17.4;;
22515;SDS011;11424;48.860;9.624;2024-03-25T09:08:00;47.7;;;51.9;;
22515;SDS011;11424;48.860;9.624;2024-03-25T09:13:00;49.6;;;53.1;;
22515;SDS011;11424;48.860;9.624;2024-03-25T09:18:00;31.5;;;33.3;;
22515;SDS011;11424;48.860;9.624;2024-03-25T09:23:00;49;;;53.9;;
22515;SDS011;11424;48.860;9.624;2024-03-25T09:28:00;37.4;;;41.5;;
22515;SDS011;11424;48.860;9.624;2024-03-25T09:33:00;13.5;;;14.4;;
22515;SDS011;11424;48.860;9.624;2024-03-25T09:38:00;9;;;9.7;;
22515;SDS011;11424;48.860;9.624;2024-03-25T09:43:02;7.4;;;8;;
22515;SDS011;11424;48.860;9.624;2024-03-25T09:48:00;12.4;;;13.3;;
22515;SDS011;11424;48.860;9.624;2024-03-25T09:53:00;58.3;;;63.4;;
22515;SDS011;11424;48.860;9.624;2024-03-25T09:58:00;30.5;;;32.2;;
22515;SDS011;11424;48.860;9.624;2024-03-25T10:03:00;47.3;;;51.8;;
22515;SDS011;11424;48.860;9.624;2024-03-25T10:08:00;47.6;;;52.2;;
22515;SDS011;11424;48.860;9.624;2024-03-25T10:13:00;50.3;;;55.1;;
22515;SDS011;11424;48.860;9.624;2024-03-25T10:18:00;48.7;;;51.6;;
22515;SDS011;11424;48.860;9.624;2024-03-25T10:23:00;58.5;;;64.1;;
22515;SDS011;11424;48.860;9.624;2024-03-25T10:28:01;58;;;63.6;;
22515;SDS011;11424;48.860;9.624;2024-03-25T10:33:01;56.9;;;62.5;;
22515;SDS011;11424;48.860;9.624;2024-03-25T10:38:01;54.9;;;60.1;;
22515;SDS011;11424;48.860;9.624;2024-03-25T10:43:01;54.3;;;59.4;;
22515;SDS011;11424;48.860;9.624;2024-03-25T10:48:02;63.8;;;70;;
22515;SDS011;11424;48.860;9.624;2024-03-25T10:53:00;77.3;;;85.5;;
22515;SDS011;11424;48.860;9.624;2024-03-25T10:58:00;65.2;;;71.5;;
22515;SDS011;11424;48.860;9.624;2024-03-25T11:03:00;70.6;;;77.2;;
22515;SDS011;11424;48.860;9.624;2024-03-25T11:08:09;66.8;;;73.6;;
22515;SDS011;11424;48.860;9.624;2024-03-25T11:13:00;67.9;;;74.2;;
22515;SDS011;11424;48.860;9.624;2024-03-25T11:18:00;64.1;;;70;;
22515;SDS011;11424;48.860;9.624;2024-03-25T11:23:07;60.4;;;65.8;;
22515;SDS011;11424;48.860;9.624;2024-03-25T11:28:00;32.6;;;35.9;;
22515;SDS011;11424;48.860;9.624;2024-03-25T11:33:01;78;;;86.3;;
22515;SDS011;11424;48.860;9.624;2024-03-25T11:38:00;84.9;;;93.7;;
22515;SDS011;11424;48.860;9.624;2024-03-25T11:43:00;77.7;;;85.7;;
22515;SDS011;11424;48.860;9.624;2024-03-25T11:48:00;52.8;;;56.7;;
22515;SDS011;11424;48.860;9.624;2024-03-25T11:53:03;26.1;;;28.3;;
22515;SDS011;11424;48.860;9.624;2024-03-25T11:58:00;29.4;;;32;;
22515;SDS011;11424;48.860;9.624;2024-03-25T12:03:00;32.8;;;36.3;;
22515;SDS011;11424;48.860;9.624;2024-03-25T12:08:00;55.9;;;60.6;;
22515;SDS011;11424;48.860;9.624;2024-03-25T12:13:00;51.8;;;55.4;;
22515;SDS011;11424;48.860;9.624;2024-03-25T12:18:00;51.1;;;54.9;;
22515;SDS011;11424;48.860;9.624;2024-03-25T12:23:01;67.3;;;74;;
22515;SDS011;11424;48.860;9.624;2024-03-25T12:28:00;53.2;;;57.2;;
22515;SDS011;11424;48.860;9.624;2024-03-25T12:33:00;52.7;;;56.5;;
22515;SDS011;11424;48.860;9.624;2024-03-25T12:38:00;54.3;;;58.5;;
22515;SDS011;11424;48.860;9.624;2024-03-25T12:43:01;63.2;;;69;;
22515;SDS011;11424;48.860;9.624;2024-03-25T12:48:00;30.5;;;32.9;;
22515;SDS011;11424;48.860;9.624;2024-03-25T12:53:00;31.2;;;33.9;;
22515;SDS011;11424;48.860;9.624;2024-03-25T12:58:00;42.7;;;46.4;;
22515;SDS011;11424;48.860;9.624;2024-03-25T13:03:00;60;;;65.5;;
22515;SDS011;11424;48.860;9.624;2024-03-25T13:08:01;67;;;74;;
22515;SDS011;11424;48.860;9.624;2024-03-25T13:13:01;52.8;;;56.6;;
22515;SDS011;11424;48.860;9.624;2024-03-25T13:18:01;55.8;;;60.3;;
22515;SDS011;11424;48.860;9.624;2024-03-25T13:23:00;63.4;;;69.7;;
22515;SDS011;11424;48.860;9.624;2024-03-25T13:28:00;61.9;;;67.9;;
22515;SDS011;11424;48.860;9.624;2024-03-25T13:33:00;56.6;;;61.8;;
22515;SDS011;11424;48.860;9.624;2024-03-25T13:38:00;62;;;68.3;;
22515;SDS011;11424;48.860;9.624;2024-03-25T13:43:01;56.7;;;62.3;;
22515;SDS011;11424;48.860;9.624;2024-03-25T13:48:01;57.1;;;63.1;;
22515;SDS011;11424;48.860;9.624;2024-03-25T13:53:01;56.6;;;62.6;;
22515;SDS011;11424;48.860;9.624;2024-03-25T13:58:01;51.4;;;55.1;;
22515;SDS011;11424;48.860;9.624;2024-03-25T14:03:01;53.4;;;58.6;;
22515;SDS011;11424;48.860;9.624;2024-03-25T14:08:01;55.5;;;60.8;;
22515;SDS011;11424;48.860;9.624;2024-03-25T14:13:01;53.8;;;58.8;;
22515;SDS011;11424;48.860;9.624;2024-03-25T14:18:01;51.5;;;56.3;;
22515;SDS011;11424;48.860;9.624;2024-03-25T14:23:01;54.7;;;60.1;;
22515;SDS011;11424;48.860;9.624;2024-03-25T14:28:01;55.3;;;61.2;;
22515;SDS011;11424;48.860;9.624;2024-03-25T14:33:01;53.4;;;58.4;;
22515;SDS011;11424;48.860;9.624;2024-03-25T14:38:01;52.9;;;58.2;;
22515;SDS011;11424;48.860;9.624;2024-03-25T14:43:01;52.2;;;57.2;;
22515;SDS011;11424;48.860;9.624;2024-03-25T14:48:01;50.7;;;55.5;;
22515;SDS011;11424;48.860;9.624;2024-03-25T14:53:01;52.2;;;57.3;;
22515;SDS011;11424;48.860;9.624;2024-03-25T14:58:01;62;;;69.4;;
22515;SDS011;11424;48.860;9.624;2024-03-25T15:03:01;51.1;;;56;;
22515;SDS011;11424;48.860;9.624;2024-03-25T15:08:01;52.7;;;58;;
22515;SDS011;11424;48.860;9.624;2024-03-25T15:13:01;53;;;58.2;;
22515;SDS011;11424;48.860;9.624;2024-03-25T15:18:01;51.1;;;56.1;;
22515;SDS011;11424;48.860;9.624;2024-03-25T15:23:01;53.9;;;58.6;;
22515;SDS011;11424;48.860;9.624;2024-03-25T15:28:01;66.9;;;72.2;;
22515;SDS011;11424;48.860;9.624;2024-03-25T15:33:01;56.3;;;60.2;;
22515;SDS011;11424;48.860;9.624;2024-03-25T15:38:01;48.8;;;52;;
22515;SDS011;11424;48.860;9.624;2024-03-25T15:43:01;69.7;;;82.2;;
22515;SDS011;11424;48.860;9.624;2024-03-25T15:48:01;52.8;;;57.7;;
22515;SDS011;11424;48.860;9.624;2024-03-25T15:53:01;69.8;;;78.2;;
22515;SDS011;11424;48.860;9.624;2024-03-25T15:58:01;65.6;;;72.4;;
22515;SDS011;11424;48.860;9.624;2024-03-25T16:03:01;61.9;;;68.2;;
22515;SDS011;11424;48.860;9.624;2024-03-25T16:08:01;50.8;;;54.4;;
22515;SDS011;11424;48.860;9.624;2024-03-25T16:13:01;49.9;;;53.1;;
22515;SDS011;11424;48.860;9.624;2024-03-25T16:18:01;48.3;;;51.4;;
22515;SDS011;11424;48.860;9.624;2024-03-25T16:23:01;49.9;;;54.3;;
22515;SDS011;11424;48.860;9.624;2024-03-25T16:28:01;56.5;;;62.4;;
22515;SDS011;11424;48.860;9.624;2024-03-25T16:33:01;56.2;;;62;;
22515;SDS011;11424;48.860;9.624;2024-03-25T16:38:01;57.4;;;63.2;;
22515;SDS011;11424;48.860;9.624;2024-03-25T16:43:01;57;;;62.7;;
22515;SDS011;11424;48.860;9.624;2024-03-25T16:48:01;54.8;;;60;;
22515;SDS011;11424;48.860;9.624;2024-03-25T16:53:01;51.6;;;55.2;;
22515;SDS011;11424;48.860;9.624;2024-03-25T16:58:01;52.8;;;56.5;;
22515;SDS011;11424;48.860;9.624;2024-03-25T17:03:01;55.9;;;61.2;;
22515;SDS011;11424;48.860;9.624;2024-03-25T17:08:01;57;;;62.5;;
22515;SDS011;11424;48.860;9.624;2024-03-25T17:13:01;56.3;;;61.7;;
22515;SDS011;11424;48.860;9.624;2024-03-25T17:18:02;53.5;;;58.4;;
22515;SDS011;11424;48.860;9.624;2024-03-25T17:23:01;56;;;61.3;;
22515;SDS011;11424;48.860;9.624;2024-03-25T17:28:01;60.8;;;66.8;;
22515;SDS011;11424;48.860;9.624;2024-03-25T17:33:01;59.7;;;65.4;;
22515;SDS011;11424;48.860;9.624;2024-03-25T17:38:01;56.7;;;61.3;;
22515;SDS011;11424;48.860;9.624;2024-03-25T17:43:01;58.2;;;63.4;;
22515;SDS011;11424;48.860;9.624;2024-03-25T17:48:01;60.2;;;66;;
22515;SDS011;11424;48.860;9.624;2024-03-25T17:53:01;60.3;;;66.2;;
22515;SDS011;11424;48.860;9.624;2024-03-25T17:58:01;63.5;;;70;;
22515;SDS011;11424;48.860;9.624;2024-03-25T18:03:01;65.3;;;72;;
22515;SDS011;11424;48.860;9.624;2024-03-25T18:08:01;63.4;;;69.5;;
22515;SDS011;11424;48.860;9.624;2024-03-25T18:13:01;63.3;;;70.1;;
22515;SDS011;11424;48.860;9.624;2024-03-25T18:18:01;67.8;;;75.5;;
22515;SDS011;11424;48.860;9.624;2024-03-25T18:23:01;68.7;;;75.4;;
22515;SDS011;11424;48.860;9.624;2024-03-25T18:28:01;85.6;;;103.6;;
22515;SDS011;11424;48.860;9.624;2024-03-25T18:33:01;76.4;;;85.9;;
22515;SDS011;11424;48.860;9.624;2024-03-25T18:38:01;84.9;;;100;;
22515;SDS011;11424;48.860;9.624;2024-03-25T18:43:01;86.4;;;104.4;;
22515;SDS011;11424;48.860;9.624;2024-03-25T18:48:01;83.1;;;93.3;;
22515;SDS011;11424;48.860;9.624;2024-03-25T18:53:01;73.4;;;81.5;;
22515;SDS011;11424;48.860;9.624;2024-03-25T18:58:01;69.5;;;76.9;;
22515;SDS011;11424;48.860;9.624;2024-03-25T19:03:01;78.3;;;87.7;;
22515;SDS011;11424;48.860;9.624;2024-03-25T19:08:01;68.6;;;76.4;;
22515;SDS011;11424;48.860;9.624;2024-03-25T19:13:01;69.6;;;77.1;;
22515;SDS011;11424;48.860;9.624;2024-03-25T19:18:01;70.6;;;78.2;;
22515;SDS011;11424;48.860;9.624;2024-03-25T19:23:01;69.1;;;76.5;;
22515;SDS011;11424;48.860;9.624;2024-03-25T19:28:01;70.6;;;78.4;;
22515;SDS011;11424;48.860;9.624;2024-03-25T19:33:01;66.3;;;73.6;;
22515;SDS011;11424;48.860;9.624;2024-03-25T19:38:01;81.9;;;94.4;;
22515;SDS011;11424;48.860;9.624;2024-03-25T19:43:01;66.9;;;74.4;;
22515;SDS011;11424;48.860;9.624;2024-03-25T19:48:01;59.9;;;65.3;;
22515;SDS011;11424;48.860;9.624;2024-03-25T19:53:01;60.6;;;66.4;;
22515;SDS011;11424;48.860;9.624;2024-03-25T19:58:01;62.3;;;68.7;;
22515;SDS011;11424;48.860;9.624;2024-03-25T20:03:01;61.1;;;66.7;;
22515;SDS011;11424;48.860;9.624;2024-03-25T20:08:01;72.3;;;80.7;;
22515;SDS011;11424;48.860;9.624;2024-03-25T20:13:01;67.4;;;74.9;;
22515;SDS011;11424;48.860;9.624;2024-03-25T20:18:01;70.6;;;78.8;;
22515;SDS011;11424;48.860;9.624;2024-03-25T20:23:01;77.6;;;87.1;;
22515;SDS011;11424;48.860;9.624;2024-03-25T20:28:02;76.1;;;85.5;;
22515;SDS011;11424;48.860;9.624;2024-03-25T20:33:01;67.2;;;74.6;;
22515;SDS011;11424;48.860;9.624;2024-03-25T20:38:01;64.8;;;72;;
22515;SDS011;11424;48.860;9.624;2024-03-25T20:43:01;71.2;;;79.1;;
22515;SDS011;11424;48.860;9.624;2024-03-25T20:48:01;79.7;;;92.4;;
22515;SDS011;11424;48.860;9.624;2024-03-25T20:53:01;84.4;;;98.9;;
22515;SDS011;11424;48.860;9.624;2024-03-25T20:58:01;89.9;;;107.1;;
22515;SDS011;11424;48.860;9.624;2024-03-25T21:03:01;72.9;;;81.1;;
22515;SDS011;11424;48.860;9.624;2024-03-25T21:08:01;81.4;;;90.6;;
22515;SDS011;11424;48.860;9.624;2024-03-25T21:13:01;75.9;;;84;;
22515;SDS011;11424;48.860;9.624;2024-03-25T21:18:02;63.5;;;70.4;;
22515;SDS011;11424;48.860;9.624;2024-03-25T21:23:01;64.7;;;71.9;;
22515;SDS011;11424;48.860;9.624;2024-03-25T21:28:01;77.3;;;85.6;;
22515;SDS011;11424;48.860;9.624;2024-03-25T21:33:01;75.9;;;84.4;;
22515;SDS011;11424;48.860;9.624;2024-03-25T21:38:01;73;;;81.3;;
22515;SDS011;11424;48.860;9.624;2024-03-25T21:43:01;72.9;;;80.6;;
22515;SDS011;11424;48.860;9.624;2024-03-25T21:48:01;74;;;81.8;;
22515;SDS011;11424;48.860;9.624;2024-03-25T21:53:01;74.6;;;83.2;;
22515;SDS011;11424;48.860;9.624;2024-03-25T21:58:01;69.5;;;77.3;;
22515;SDS011;11424;48.860;9.624;2024-03-25T22:03:01;61.6;;;67.6;;
22515;SDS011;11424;48.860;9.624;2024-03-25T22:08:01;72;;;80.8;;
22515;SDS011;11424;48.860;9.624;2024-03-25T22:13:01;91.6;;;120.6;;
22515;SDS011;11424;48.860;9.624;2024-03-25T22:18:01;68.4;;;75.9;;
22515;SDS011;11424;48.860;9.624;2024-03-25T22:23:01;69.7;;;77.6;;
22515;SDS011;11424;48.860;9.624;2024-03-25T22:28:01;66.4;;;73.7;;
22515;SDS011;11424;48.860;9.624;2024-03-25T22:33:01;72.7;;;81.1;;
22515;SDS011;11424;48.860;9.624;2024-03-25T22:38:01;71;;;79.1;;
22515;SDS011;11424;48.860;9.624;2024-03-25T22:43:01;69.8;;;78;;
22515;SDS011;11424;48.860;9.624;2024-03-25T22:48:01;71.4;;;79.6;;
22515;SDS011;11424;48.860;9.624;2024-03-25T22:53:01;72.5;;;81.6;;
22515;SDS011;11424;48.860;9.624;2024-03-25T22:58:01;74.1;;;87.3;;
22515;SDS011;11424;48.860;9.624;2024-03-25T23:03:01;72.4;;;83.8;;
22515;SDS011;11424;48.860;9.624;2024-03-25T23:08:01;72.1;;;82.9;;
22515;SDS011;11424;48.860;9.624;2024-03-25T23:13:01;78.5;;;96.4;;
22515;SDS011;11424;48.860;9.624;2024-03-25T23:18:01;78.3;;;102.1;;
22515;SDS011;11424;48.860;9.624;2024-03-25T23:23:01;86.9;;;127;;
22515;SDS011;11424;48.860;9.624;2024-03-25T23:28:01;73.9;;;101.3;;
22515;SDS011;11424;48.860;9.624;2024-03-25T23:33:01;72.5;;;90.8;;
22515;SDS011;11424;48.860;9.624;2024-03-25T23:38:01;72.9;;;90;;
22515;SDS011;11424;48.860;9.624;2024-03-25T23:43:01;65.2;;;73;;
22515;SDS011;11424;48.860;9.624;2024-03-25T23:48:01;77.8;;;87.4;;
22515;SDS011;11424;48.860;9.624;2024-03-25T23:53:01;81.1;;;95.6;;
22515;SDS011;11424;48.860;9.624;2024-03-25T23:58:01;79.5;;;89.3;;
